sensor_id;sensor_type;location;lat;lon;timestamp;P1;durP1;ratioP1;P2;durP2;ratioP2
61685;SDS011;47592;45.904;8.978;2023-09-18T00:00:56;11.23;;;4.75;;
61685;SDS011;47592;45.904;8.978;2023-09-18T00:03:22;11.10;;;5.00;;
61685;SDS011;47592;45.904;8.978;2023-09-18T00:05:49;7.88;;;5.00;;
61685;SDS011;47592;45.904;8.978;2023-09-18T00:08:16;12.45;;;5.07;;
61685;SDS011;47592;45.904;8.978;2023-09-18T00:10:42;7.47;;;4.38;;
61685;SDS011;47592;45.904;8.978;2023-09-18T00:13:12;8.65;;;4.70;;
61685;SDS011;47592;45.904;8.978;2023-09-18T00:15:37;7.75;;;4.82;;
61685;SDS011;47592;45.904;8.978;2023-09-18T00:18:08;7.15;;;4.88;;
61685;SDS011;47592;45.904;8.978;2023-09-18T00:20:34;7.53;;;4.60;;
61685;SDS011;47592;45.904;8.978;2023-09-18T00:23:00;9.55;;;4.63;;
61685;SDS011;47592;45.904;8.978;2023-09-18T00:25:25;8.45;;;4.38;;
61685;SDS011;47592;45.904;8.978;2023-09-18T00:27:53;9.90;;;5.05;;
61685;SDS011;47592;45.904;8.978;2023-09-18T00:30:19;8.35;;;4.88;;
61685;SDS011;47592;45.904;8.978;2023-09-18T00:32:46;11.57;;;4.75;;
61685;SDS011;47592;45.904;8.978;2023-09-18T00:35:12;8.93;;;4.90;;
61685;SDS011;47592;45.904;8.978;2023-09-18T00:37:42;9.93;;;4.90;;
61685;SDS011;47592;45.904;8.978;2023-09-18T00:40:10;7.90;;;4.60;;
61685;SDS011;47592;45.904;8.978;2023-09-18T00:42:37;9.23;;;4.57;;
61685;SDS011;47592;45.904;8.978;2023-09-18T00:45:02;8.75;;;4.85;;
61685;SDS011;47592;45.904;8.978;2023-09-18T00:47:28;9.80;;;5.00;;
61685;SDS011;47592;45.904;8.978;2023-09-18T00:49:56;8.05;;;4.65;;
61685;SDS011;47592;45.904;8.978;2023-09-18T00:52:24;7.18;;;4.07;;
61685;SDS011;47592;45.904;8.978;2023-09-18T00:54:50;8.77;;;4.22;;
61685;SDS011;47592;45.904;8.978;2023-09-18T00:57:16;10.60;;;4.55;;
61685;SDS011;47592;45.904;8.978;2023-09-18T00:59:41;7.22;;;4.15;;
61685;SDS011;47592;45.904;8.978;2023-09-18T01:02:07;7.97;;;4.40;;
61685;SDS011;47592;45.904;8.978;2023-09-18T01:04:33;8.98;;;5.55;;
61685;SDS011;47592;45.904;8.978;2023-09-18T01:06:59;11.15;;;4.50;;
61685;SDS011;47592;45.904;8.978;2023-09-18T01:09:28;7.80;;;4.38;;
61685;SDS011;47592;45.904;8.978;2023-09-18T01:15:55;8.55;;;4.30;;
61685;SDS011;47592;45.904;8.978;2023-09-18T01:17:55;9.65;;;4.50;;
61685;SDS011;47592;45.904;8.978;2023-09-18T01:20:21;8.65;;;4.55;;
61685;SDS011;47592;45.904;8.978;2023-09-18T01:22:46;10.32;;;4.47;;
61685;SDS011;47592;45.904;8.978;2023-09-18T01:25:11;10.93;;;4.57;;
61685;SDS011;47592;45.904;8.978;2023-09-18T01:27:47;9.18;;;4.60;;
61685;SDS011;47592;45.904;8.978;2023-09-18T01:30:15;7.85;;;4.55;;
61685;SDS011;47592;45.904;8.978;2023-09-18T01:32:40;9.43;;;4.63;;
61685;SDS011;47592;45.904;8.978;2023-09-18T01:35:11;7.75;;;4.63;;
61685;SDS011;47592;45.904;8.978;2023-09-18T01:37:37;10.13;;;4.27;;
61685;SDS011;47592;45.904;8.978;2023-09-18T01:40:03;9.65;;;4.70;;
61685;SDS011;47592;45.904;8.978;2023-09-18T01:42:31;9.03;;;3.83;;
61685;SDS011;47592;45.904;8.978;2023-09-18T01:44:57;9.27;;;4.80;;
61685;SDS011;47592;45.904;8.978;2023-09-18T01:47:22;11.90;;;4.60;;
61685;SDS011;47592;45.904;8.978;2023-09-18T01:49:48;8.75;;;4.90;;
61685;SDS011;47592;45.904;8.978;2023-09-18T01:52:14;7.60;;;4.13;;
61685;SDS011;47592;45.904;8.978;2023-09-18T01:54:39;7.63;;;4.50;;
61685;SDS011;47592;45.904;8.978;2023-09-18T01:57:04;10.65;;;4.75;;
61685;SDS011;47592;45.904;8.978;2023-09-18T01:59:32;8.25;;;4.18;;
61685;SDS011;47592;45.904;8.978;2023-09-18T02:01:58;6.40;;;4.15;;
61685;SDS011;47592;45.904;8.978;2023-09-18T02:04:31;8.93;;;4.70;;
61685;SDS011;47592;45.904;8.978;2023-09-18T02:06:57;9.45;;;4.38;;
61685;SDS011;47592;45.904;8.978;2023-09-18T02:09:25;10.60;;;4.22;;
61685;SDS011;47592;45.904;8.978;2023-09-18T02:11:50;9.02;;;4.38;;
61685;SDS011;47592;45.904;8.978;2023-09-18T02:14:16;8.68;;;3.92;;
61685;SDS011;47592;45.904;8.978;2023-09-18T02:16:42;11.73;;;5.00;;
61685;SDS011;47592;45.904;8.978;2023-09-18T02:19:13;12.35;;;5.13;;
61685;SDS011;47592;45.904;8.978;2023-09-18T02:21:39;9.00;;;4.60;;
61685;SDS011;47592;45.904;8.978;2023-09-18T02:24:07;8.13;;;4.53;;
61685;SDS011;47592;45.904;8.978;2023-09-18T02:26:38;7.80;;;4.55;;
61685;SDS011;47592;45.904;8.978;2023-09-18T02:29:05;9.25;;;4.57;;
61685;SDS011;47592;45.904;8.978;2023-09-18T02:31:32;9.45;;;4.60;;
61685;SDS011;47592;45.904;8.978;2023-09-18T02:33:58;11.20;;;4.78;;
61685;SDS011;47592;45.904;8.978;2023-09-18T02:36:23;9.32;;;4.22;;
61685;SDS011;47592;45.904;8.978;2023-09-18T02:38:49;8.60;;;4.38;;
61685;SDS011;47592;45.904;8.978;2023-09-18T02:41:14;9.77;;;4.53;;
61685;SDS011;47592;45.904;8.978;2023-09-18T02:43:42;7.15;;;4.60;;
61685;SDS011;47592;45.904;8.978;2023-09-18T02:46:12;9.27;;;4.53;;
61685;SDS011;47592;45.904;8.978;2023-09-18T02:48:39;7.72;;;4.50;;
61685;SDS011;47592;45.904;8.978;2023-09-18T02:51:08;14.95;;;5.07;;
61685;SDS011;47592;45.904;8.978;2023-09-18T02:53:35;9.55;;;4.07;;
61685;SDS011;47592;45.904;8.978;2023-09-18T02:56:01;9.55;;;4.88;;
61685;SDS011;47592;45.904;8.978;2023-09-18T02:58:28;9.25;;;4.28;;
61685;SDS011;47592;45.904;8.978;2023-09-18T03:00:55;8.15;;;4.32;;
61685;SDS011;47592;45.904;8.978;2023-09-18T03:05:52;9.82;;;4.45;;
61685;SDS011;47592;45.904;8.978;2023-09-18T03:08:18;9.38;;;4.40;;
61685;SDS011;47592;45.904;8.978;2023-09-18T03:10:43;8.73;;;4.70;;
61685;SDS011;47592;45.904;8.978;2023-09-18T03:13:09;9.32;;;4.78;;
61685;SDS011;47592;45.904;8.978;2023-09-18T03:15:36;8.77;;;4.70;;
61685;SDS011;47592;45.904;8.978;2023-09-18T03:18:02;11.38;;;5.03;;
61685;SDS011;47592;45.904;8.978;2023-09-18T03:20:29;9.07;;;4.63;;
61685;SDS011;47592;45.904;8.978;2023-09-18T03:22:56;10.55;;;5.78;;
61685;SDS011;47592;45.904;8.978;2023-09-18T03:25:23;10.55;;;4.55;;
61685;SDS011;47592;45.904;8.978;2023-09-18T03:27:51;10.23;;;4.50;;
61685;SDS011;47592;45.904;8.978;2023-09-18T03:30:17;9.10;;;4.45;;
61685;SDS011;47592;45.904;8.978;2023-09-18T03:32:44;11.73;;;4.70;;
61685;SDS011;47592;45.904;8.978;2023-09-18T03:35:09;8.50;;;4.72;;
61685;SDS011;47592;45.904;8.978;2023-09-18T03:37:42;8.98;;;4.72;;
61685;SDS011;47592;45.904;8.978;2023-09-18T03:40:10;8.10;;;4.32;;
61685;SDS011;47592;45.904;8.978;2023-09-18T03:42:38;8.60;;;4.50;;
61685;SDS011;47592;45.904;8.978;2023-09-18T03:45:06;10.13;;;4.63;;
61685;SDS011;47592;45.904;8.978;2023-09-18T03:47:36;8.55;;;4.65;;
61685;SDS011;47592;45.904;8.978;2023-09-18T03:50:02;9.68;;;4.40;;
61685;SDS011;47592;45.904;8.978;2023-09-18T03:52:30;7.85;;;4.82;;
61685;SDS011;47592;45.904;8.978;2023-09-18T03:54:56;9.15;;;4.85;;
61685;SDS011;47592;45.904;8.978;2023-09-18T03:57:21;9.35;;;4.95;;
61685;SDS011;47592;45.904;8.978;2023-09-18T03:59:47;12.98;;;5.53;;
61685;SDS011;47592;45.904;8.978;2023-09-18T04:02:12;9.32;;;5.10;;
61685;SDS011;47592;45.904;8.978;2023-09-18T04:04:37;11.88;;;5.63;;
61685;SDS011;47592;45.904;8.978;2023-09-18T04:07:06;10.27;;;5.15;;
61685;SDS011;47592;45.904;8.978;2023-09-18T04:09:32;9.68;;;5.57;;
61685;SDS011;47592;45.904;8.978;2023-09-18T04:12:02;10.57;;;5.00;;
61685;SDS011;47592;45.904;8.978;2023-09-18T04:14:31;13.15;;;5.65;;
61685;SDS011;47592;45.904;8.978;2023-09-18T04:16:56;9.90;;;5.50;;
61685;SDS011;47592;45.904;8.978;2023-09-18T04:19:22;11.70;;;5.70;;
61685;SDS011;47592;45.904;8.978;2023-09-18T04:21:47;10.88;;;5.70;;
61685;SDS011;47592;45.904;8.978;2023-09-18T04:24:13;12.20;;;5.90;;
61685;SDS011;47592;45.904;8.978;2023-09-18T04:26:40;9.93;;;5.53;;
61685;SDS011;47592;45.904;8.978;2023-09-18T04:29:08;11.25;;;5.97;;
61685;SDS011;47592;45.904;8.978;2023-09-18T04:31:36;10.90;;;5.22;;
61685;SDS011;47592;45.904;8.978;2023-09-18T04:34:04;11.40;;;5.35;;
61685;SDS011;47592;45.904;8.978;2023-09-18T04:36:29;12.38;;;5.70;;
61685;SDS011;47592;45.904;8.978;2023-09-18T04:38:55;9.60;;;5.65;;
61685;SDS011;47592;45.904;8.978;2023-09-18T04:41:20;11.15;;;5.95;;
61685;SDS011;47592;45.904;8.978;2023-09-18T04:43:46;10.00;;;5.75;;
61685;SDS011;47592;45.904;8.978;2023-09-18T04:46:14;12.07;;;5.63;;
61685;SDS011;47592;45.904;8.978;2023-09-18T04:48:40;9.65;;;5.53;;
61685;SDS011;47592;45.904;8.978;2023-09-18T04:51:06;11.90;;;5.57;;
61685;SDS011;47592;45.904;8.978;2023-09-18T04:53:32;10.95;;;6.60;;
61685;SDS011;47592;45.904;8.978;2023-09-18T04:55:59;10.98;;;6.07;;
61685;SDS011;47592;45.904;8.978;2023-09-18T04:58:28;12.88;;;5.88;;
61685;SDS011;47592;45.904;8.978;2023-09-18T05:00:57;9.80;;;5.55;;
61685;SDS011;47592;45.904;8.978;2023-09-18T05:03:24;10.15;;;5.70;;
61685;SDS011;47592;45.904;8.978;2023-09-18T05:05:50;12.40;;;5.88;;
61685;SDS011;47592;45.904;8.978;2023-09-18T05:08:15;9.13;;;5.72;;
61685;SDS011;47592;45.904;8.978;2023-09-18T05:10:41;11.23;;;5.88;;
61685;SDS011;47592;45.904;8.978;2023-09-18T05:13:07;11.90;;;6.03;;
61685;SDS011;47592;45.904;8.978;2023-09-18T05:15:33;12.25;;;5.90;;
61685;SDS011;47592;45.904;8.978;2023-09-18T05:18:01;12.32;;;6.07;;
61685;SDS011;47592;45.904;8.978;2023-09-18T05:20:27;13.65;;;6.10;;
61685;SDS011;47592;45.904;8.978;2023-09-18T05:22:56;10.85;;;5.75;;
61685;SDS011;47592;45.904;8.978;2023-09-18T05:25:22;12.30;;;6.20;;
61685;SDS011;47592;45.904;8.978;2023-09-18T05:27:52;13.05;;;6.32;;
61685;SDS011;47592;45.904;8.978;2023-09-18T05:30:23;14.30;;;5.75;;
61685;SDS011;47592;45.904;8.978;2023-09-18T05:32:52;11.27;;;6.00;;
61685;SDS011;47592;45.904;8.978;2023-09-18T05:35:20;11.27;;;6.70;;
61685;SDS011;47592;45.904;8.978;2023-09-18T05:37:46;10.60;;;5.43;;
61685;SDS011;47592;45.904;8.978;2023-09-18T05:40:14;8.73;;;6.03;;
61685;SDS011;47592;45.904;8.978;2023-09-18T05:42:43;10.90;;;6.00;;
61685;SDS011;47592;45.904;8.978;2023-09-18T05:45:11;10.40;;;6.55;;
61685;SDS011;47592;45.904;8.978;2023-09-18T05:47:37;10.80;;;5.85;;
61685;SDS011;47592;45.904;8.978;2023-09-18T05:50:05;13.75;;;6.57;;
61685;SDS011;47592;45.904;8.978;2023-09-18T05:52:34;13.68;;;6.13;;
61685;SDS011;47592;45.904;8.978;2023-09-18T05:55:00;11.75;;;6.30;;
61685;SDS011;47592;45.904;8.978;2023-09-18T05:57:29;12.05;;;6.57;;
61685;SDS011;47592;45.904;8.978;2023-09-18T06:02:44;12.85;;;6.80;;
61685;SDS011;47592;45.904;8.978;2023-09-18T06:05:10;10.98;;;6.07;;
61685;SDS011;47592;45.904;8.978;2023-09-18T06:07:36;13.30;;;6.75;;
61685;SDS011;47592;45.904;8.978;2023-09-18T06:10:02;12.55;;;6.60;;
61685;SDS011;47592;45.904;8.978;2023-09-18T06:12:28;11.10;;;6.57;;
61685;SDS011;47592;45.904;8.978;2023-09-18T06:14:54;10.13;;;6.55;;
61685;SDS011;47592;45.904;8.978;2023-09-18T06:17:19;10.95;;;6.47;;
61685;SDS011;47592;45.904;8.978;2023-09-18T06:19:47;11.98;;;6.63;;
61685;SDS011;47592;45.904;8.978;2023-09-18T06:22:13;11.15;;;6.13;;
61685;SDS011;47592;45.904;8.978;2023-09-18T06:24:39;12.95;;;5.90;;
61685;SDS011;47592;45.904;8.978;2023-09-18T06:27:04;13.35;;;6.35;;
61685;SDS011;47592;45.904;8.978;2023-09-18T06:29:33;9.52;;;6.10;;
61685;SDS011;47592;45.904;8.978;2023-09-18T06:31:59;14.05;;;6.97;;
61685;SDS011;47592;45.904;8.978;2023-09-18T06:34:27;13.15;;;6.18;;
61685;SDS011;47592;45.904;8.978;2023-09-18T06:36:55;9.73;;;5.70;;
61685;SDS011;47592;45.904;8.978;2023-09-18T06:39:23;9.60;;;5.63;;
61685;SDS011;47592;45.904;8.978;2023-09-18T06:41:51;10.88;;;5.57;;
61685;SDS011;47592;45.904;8.978;2023-09-18T06:44:19;14.95;;;6.40;;
61685;SDS011;47592;45.904;8.978;2023-09-18T06:46:48;14.88;;;6.95;;
61685;SDS011;47592;45.904;8.978;2023-09-18T06:49:13;12.70;;;5.97;;
61685;SDS011;47592;45.904;8.978;2023-09-18T06:51:39;10.48;;;5.60;;
61685;SDS011;47592;45.904;8.978;2023-09-18T06:54:04;10.38;;;5.75;;
61685;SDS011;47592;45.904;8.978;2023-09-18T06:56:35;10.52;;;5.53;;
61685;SDS011;47592;45.904;8.978;2023-09-18T06:59:00;11.35;;;6.93;;
61685;SDS011;47592;45.904;8.978;2023-09-18T07:01:29;12.43;;;6.75;;
61685;SDS011;47592;45.904;8.978;2023-09-18T07:03:56;12.68;;;7.53;;
61685;SDS011;47592;45.904;8.978;2023-09-18T07:06:25;26.65;;;17.00;;
61685;SDS011;47592;45.904;8.978;2023-09-18T07:08:52;28.45;;;19.70;;
61685;SDS011;47592;45.904;8.978;2023-09-18T07:11:18;26.30;;;19.67;;
61685;SDS011;47592;45.904;8.978;2023-09-18T07:13:46;29.85;;;19.70;;
61685;SDS011;47592;45.904;8.978;2023-09-18T07:16:11;30.58;;;21.50;;
61685;SDS011;47592;45.904;8.978;2023-09-18T07:18:37;30.63;;;20.98;;
61685;SDS011;47592;45.904;8.978;2023-09-18T07:21:02;30.52;;;19.80;;
61685;SDS011;47592;45.904;8.978;2023-09-18T07:23:28;27.27;;;20.05;;
61685;SDS011;47592;45.904;8.978;2023-09-18T07:25:55;28.65;;;20.08;;
61685;SDS011;47592;45.904;8.978;2023-09-18T07:28:23;32.38;;;19.92;;
61685;SDS011;47592;45.904;8.978;2023-09-18T07:30:51;28.90;;;20.55;;
61685;SDS011;47592;45.904;8.978;2023-09-18T07:33:21;31.08;;;20.42;;
61685;SDS011;47592;45.904;8.978;2023-09-18T07:35:47;28.33;;;20.48;;
61685;SDS011;47592;45.904;8.978;2023-09-18T07:38:13;30.92;;;21.60;;
61685;SDS011;47592;45.904;8.978;2023-09-18T07:40:41;31.25;;;20.95;;
61685;SDS011;47592;45.904;8.978;2023-09-18T07:43:08;31.13;;;21.33;;
61685;SDS011;47592;45.904;8.978;2023-09-18T07:45:38;30.17;;;21.55;;
61685;SDS011;47592;45.904;8.978;2023-09-18T07:48:04;31.25;;;22.02;;
61685;SDS011;47592;45.904;8.978;2023-09-18T07:50:34;30.80;;;21.38;;
61685;SDS011;47592;45.904;8.978;2023-09-18T07:53:00;29.67;;;20.92;;
61685;SDS011;47592;45.904;8.978;2023-09-18T07:55:30;29.52;;;22.45;;
61685;SDS011;47592;45.904;8.978;2023-09-18T07:57:58;30.63;;;21.58;;
61685;SDS011;47592;45.904;8.978;2023-09-18T08:00:24;31.55;;;23.75;;
61685;SDS011;47592;45.904;8.978;2023-09-18T08:02:50;32.90;;;22.95;;
61685;SDS011;47592;45.904;8.978;2023-09-18T08:05:22;34.07;;;22.93;;
61685;SDS011;47592;45.904;8.978;2023-09-18T08:07:52;31.23;;;21.95;;
61685;SDS011;47592;45.904;8.978;2023-09-18T08:10:22;31.40;;;22.10;;
61685;SDS011;47592;45.904;8.978;2023-09-18T08:12:50;29.13;;;21.50;;
61685;SDS011;47592;45.904;8.978;2023-09-18T08:15:17;31.67;;;21.15;;
61685;SDS011;47592;45.904;8.978;2023-09-18T08:17:46;32.20;;;22.40;;
61685;SDS011;47592;45.904;8.978;2023-09-18T08:20:13;32.25;;;20.45;;
61685;SDS011;47592;45.904;8.978;2023-09-18T08:22:39;30.50;;;21.45;;
61685;SDS011;47592;45.904;8.978;2023-09-18T08:25:06;30.20;;;20.10;;
61685;SDS011;47592;45.904;8.978;2023-09-18T08:27:39;27.90;;;20.63;;
61685;SDS011;47592;45.904;8.978;2023-09-18T08:30:13;29.55;;;21.08;;
61685;SDS011;47592;45.904;8.978;2023-09-18T08:32:39;30.92;;;21.00;;
61685;SDS011;47592;45.904;8.978;2023-09-18T08:35:07;32.45;;;22.17;;
61685;SDS011;47592;45.904;8.978;2023-09-18T08:37:35;28.23;;;21.00;;
61685;SDS011;47592;45.904;8.978;2023-09-18T08:40:03;30.58;;;21.95;;
61685;SDS011;47592;45.904;8.978;2023-09-18T08:42:35;33.25;;;22.80;;
61685;SDS011;47592;45.904;8.978;2023-09-18T08:45:01;30.77;;;22.17;;
61685;SDS011;47592;45.904;8.978;2023-09-18T08:47:32;30.25;;;21.77;;
61685;SDS011;47592;45.904;8.978;2023-09-18T08:49:58;31.50;;;22.88;;
61685;SDS011;47592;45.904;8.978;2023-09-18T08:52:26;33.50;;;23.55;;
61685;SDS011;47592;45.904;8.978;2023-09-18T08:54:52;39.00;;;24.83;;
61685;SDS011;47592;45.904;8.978;2023-09-18T08:57:19;34.85;;;22.95;;
61685;SDS011;47592;45.904;8.978;2023-09-18T08:59:44;34.50;;;23.63;;
61685;SDS011;47592;45.904;8.978;2023-09-18T09:02:11;31.05;;;23.25;;
61685;SDS011;47592;45.904;8.978;2023-09-18T09:04:37;32.28;;;22.92;;
61685;SDS011;47592;45.904;8.978;2023-09-18T09:07:04;31.25;;;22.73;;
61685;SDS011;47592;45.904;8.978;2023-09-18T09:09:31;35.10;;;23.50;;
61685;SDS011;47592;45.904;8.978;2023-09-18T09:11:57;32.88;;;23.02;;
61685;SDS011;47592;45.904;8.978;2023-09-18T09:14:22;30.50;;;20.58;;
61685;SDS011;47592;45.904;8.978;2023-09-18T09:16:53;28.88;;;19.98;;
61685;SDS011;47592;45.904;8.978;2023-09-18T09:19:30;35.20;;;21.48;;
61685;SDS011;47592;45.904;8.978;2023-09-18T09:21:59;23.15;;;17.48;;
61685;SDS011;47592;45.904;8.978;2023-09-18T09:24:48;28.02;;;20.60;;
61685;SDS011;47592;45.904;8.978;2023-09-18T09:27:12;30.58;;;21.42;;
61685;SDS011;47592;45.904;8.978;2023-09-18T09:29:39;28.05;;;20.40;;
61685;SDS011;47592;45.904;8.978;2023-09-18T09:32:15;29.48;;;21.02;;
61685;SDS011;47592;45.904;8.978;2023-09-18T09:34:44;26.17;;;19.60;;
61685;SDS011;47592;45.904;8.978;2023-09-18T09:37:13;30.08;;;20.35;;
61685;SDS011;47592;45.904;8.978;2023-09-18T09:39:48;27.40;;;20.00;;
61685;SDS011;47592;45.904;8.978;2023-09-18T09:42:18;26.60;;;20.13;;
61685;SDS011;47592;45.904;8.978;2023-09-18T09:44:55;32.85;;;21.10;;
61685;SDS011;47592;45.904;8.978;2023-09-18T09:47:30;26.85;;;20.10;;
61685;SDS011;47592;45.904;8.978;2023-09-18T09:49:58;26.95;;;20.75;;
61685;SDS011;47592;45.904;8.978;2023-09-18T09:52:28;29.42;;;21.08;;
61685;SDS011;47592;45.904;8.978;2023-09-18T09:54:55;28.05;;;18.80;;
61685;SDS011;47592;45.904;8.978;2023-09-18T09:57:21;29.20;;;21.88;;
61685;SDS011;47592;45.904;8.978;2023-09-18T09:59:49;29.95;;;21.55;;
61685;SDS011;47592;45.904;8.978;2023-09-18T10:02:14;36.90;;;25.25;;
61685;SDS011;47592;45.904;8.978;2023-09-18T10:04:44;34.08;;;25.88;;
61685;SDS011;47592;45.904;8.978;2023-09-18T10:07:13;35.65;;;27.55;;
61685;SDS011;47592;45.904;8.978;2023-09-18T10:09:39;37.53;;;26.90;;
61685;SDS011;47592;45.904;8.978;2023-09-18T10:12:10;32.80;;;24.77;;
61685;SDS011;47592;45.904;8.978;2023-09-18T10:19:54;28.80;;;20.48;;
61685;SDS011;47592;45.904;8.978;2023-09-18T10:25:14;29.10;;;19.67;;
61685;SDS011;47592;45.904;8.978;2023-09-18T10:27:44;28.08;;;20.52;;
61685;SDS011;47592;45.904;8.978;2023-09-18T10:30:13;26.88;;;20.40;;
61685;SDS011;47592;45.904;8.978;2023-09-18T10:32:39;28.35;;;19.55;;
61685;SDS011;47592;45.904;8.978;2023-09-18T10:35:07;28.20;;;21.13;;
61685;SDS011;47592;45.904;8.978;2023-09-18T10:37:33;27.67;;;20.25;;
61685;SDS011;47592;45.904;8.978;2023-09-18T10:40:02;29.70;;;20.90;;
61685;SDS011;47592;45.904;8.978;2023-09-18T10:42:29;23.63;;;18.10;;
61685;SDS011;47592;45.904;8.978;2023-09-18T10:44:56;23.00;;;16.40;;
61685;SDS011;47592;45.904;8.978;2023-09-18T10:47:21;22.13;;;14.73;;
61685;SDS011;47592;45.904;8.978;2023-09-18T10:49:51;21.60;;;14.68;;
61685;SDS011;47592;45.904;8.978;2023-09-18T10:52:16;20.38;;;15.23;;
61685;SDS011;47592;45.904;8.978;2023-09-18T10:54:42;21.13;;;16.33;;
61685;SDS011;47592;45.904;8.978;2023-09-18T10:57:07;23.48;;;17.33;;
61685;SDS011;47592;45.904;8.978;2023-09-18T10:59:43;21.02;;;15.50;;
61685;SDS011;47592;45.904;8.978;2023-09-18T11:02:13;23.60;;;14.70;;
61685;SDS011;47592;45.904;8.978;2023-09-18T11:04:41;17.48;;;11.02;;
61685;SDS011;47592;45.904;8.978;2023-09-18T11:07:07;22.08;;;14.30;;
61685;SDS011;47592;45.904;8.978;2023-09-18T11:09:44;20.55;;;11.77;;
61685;SDS011;47592;45.904;8.978;2023-09-18T11:12:10;21.75;;;14.25;;
61685;SDS011;47592;45.904;8.978;2023-09-18T11:20:03;18.30;;;11.77;;
61685;SDS011;47592;45.904;8.978;2023-09-18T11:22:37;20.75;;;15.20;;
61685;SDS011;47592;45.904;8.978;2023-09-18T11:27:59;20.88;;;15.70;;
61685;SDS011;47592;45.904;8.978;2023-09-18T11:30:26;17.73;;;10.15;;
61685;SDS011;47592;45.904;8.978;2023-09-18T11:32:55;20.80;;;13.85;;
61685;SDS011;47592;45.904;8.978;2023-09-18T11:35:20;25.02;;;15.80;;
61685;SDS011;47592;45.904;8.978;2023-09-18T11:37:46;21.23;;;15.65;;
61685;SDS011;47592;45.904;8.978;2023-09-18T11:40:32;25.35;;;16.45;;
61685;SDS011;47592;45.904;8.978;2023-09-18T11:45:55;21.83;;;13.95;;
61685;SDS011;47592;45.904;8.978;2023-09-18T11:48:22;16.42;;;11.20;;
61685;SDS011;47592;45.904;8.978;2023-09-18T11:50:54;16.33;;;10.98;;
61685;SDS011;47592;45.904;8.978;2023-09-18T11:53:21;22.73;;;13.60;;
61685;SDS011;47592;45.904;8.978;2023-09-18T11:55:48;17.33;;;10.70;;
61685;SDS011;47592;45.904;8.978;2023-09-18T11:58:16;20.15;;;10.48;;
61685;SDS011;47592;45.904;8.978;2023-09-18T12:00:41;16.90;;;10.00;;
61685;SDS011;47592;45.904;8.978;2023-09-18T12:03:13;22.42;;;11.15;;
61685;SDS011;47592;45.904;8.978;2023-09-18T12:06:01;21.55;;;10.90;;
61685;SDS011;47592;45.904;8.978;2023-09-18T12:08:30;15.83;;;9.83;;
61685;SDS011;47592;45.904;8.978;2023-09-18T12:10:56;18.17;;;10.27;;
61685;SDS011;47592;45.904;8.978;2023-09-18T12:13:23;25.35;;;10.13;;
61685;SDS011;47592;45.904;8.978;2023-09-18T12:15:50;18.58;;;9.30;;
61685;SDS011;47592;45.904;8.978;2023-09-18T12:20:54;12.98;;;8.38;;
61685;SDS011;47592;45.904;8.978;2023-09-18T12:23:24;13.68;;;8.00;;
61685;SDS011;47592;45.904;8.978;2023-09-18T12:25:50;12.05;;;7.70;;
61685;SDS011;47592;45.904;8.978;2023-09-18T12:28:21;12.98;;;7.55;;
61685;SDS011;47592;45.904;8.978;2023-09-18T12:30:48;13.02;;;8.50;;
61685;SDS011;47592;45.904;8.978;2023-09-18T12:33:17;12.75;;;8.23;;
61685;SDS011;47592;45.904;8.978;2023-09-18T12:35:42;13.48;;;7.90;;
61685;SDS011;47592;45.904;8.978;2023-09-18T12:38:15;13.43;;;7.90;;
61685;SDS011;47592;45.904;8.978;2023-09-18T12:40:43;13.65;;;7.93;;
61685;SDS011;47592;45.904;8.978;2023-09-18T12:43:10;13.63;;;7.93;;
61685;SDS011;47592;45.904;8.978;2023-09-18T12:45:36;12.90;;;8.55;;
61685;SDS011;47592;45.904;8.978;2023-09-18T12:48:02;14.35;;;8.35;;
61685;SDS011;47592;45.904;8.978;2023-09-18T12:50:28;14.00;;;8.10;;
61685;SDS011;47592;45.904;8.978;2023-09-18T12:53:06;15.02;;;8.77;;
61685;SDS011;47592;45.904;8.978;2023-09-18T12:55:33;14.95;;;8.38;;
61685;SDS011;47592;45.904;8.978;2023-09-18T12:58:00;14.55;;;8.15;;
61685;SDS011;47592;45.904;8.978;2023-09-18T13:00:30;15.93;;;8.90;;
61685;SDS011;47592;45.904;8.978;2023-09-18T13:02:56;13.32;;;8.23;;
61685;SDS011;47592;45.904;8.978;2023-09-18T13:05:22;13.27;;;8.63;;
61685;SDS011;47592;45.904;8.978;2023-09-18T13:07:51;16.77;;;8.57;;
61685;SDS011;47592;45.904;8.978;2023-09-18T13:10:19;13.25;;;8.52;;
61685;SDS011;47592;45.904;8.978;2023-09-18T13:15:38;14.73;;;8.50;;
61685;SDS011;47592;45.904;8.978;2023-09-18T13:18:10;16.00;;;8.65;;
61685;SDS011;47592;45.904;8.978;2023-09-18T13:20:36;14.35;;;8.30;;
61685;SDS011;47592;45.904;8.978;2023-09-18T13:23:02;14.75;;;9.07;;
61685;SDS011;47592;45.904;8.978;2023-09-18T13:25:29;14.80;;;8.25;;
61685;SDS011;47592;45.904;8.978;2023-09-18T13:27:59;16.33;;;9.30;;
61685;SDS011;47592;45.904;8.978;2023-09-18T13:30:28;14.70;;;9.25;;
61685;SDS011;47592;45.904;8.978;2023-09-18T13:33:01;22.38;;;12.73;;
61685;SDS011;47592;45.904;8.978;2023-09-18T13:35:31;23.70;;;13.68;;
61685;SDS011;47592;45.904;8.978;2023-09-18T13:37:59;20.92;;;14.00;;
61685;SDS011;47592;45.904;8.978;2023-09-18T13:40:29;22.48;;;13.63;;
61685;SDS011;47592;45.904;8.978;2023-09-18T13:42:55;25.10;;;13.90;;
61685;SDS011;47592;45.904;8.978;2023-09-18T13:45:20;23.33;;;13.95;;
61685;SDS011;47592;45.904;8.978;2023-09-18T13:47:45;21.23;;;12.68;;
61685;SDS011;47592;45.904;8.978;2023-09-18T13:50:14;19.02;;;9.38;;
61685;SDS011;47592;45.904;8.978;2023-09-18T13:52:40;21.67;;;8.68;;
61685;SDS011;47592;45.904;8.978;2023-09-18T13:55:07;21.05;;;8.75;;
61685;SDS011;47592;45.904;8.978;2023-09-18T13:57:37;20.52;;;8.05;;
61685;SDS011;47592;45.904;8.978;2023-09-18T14:00:03;21.15;;;9.18;;
61685;SDS011;47592;45.904;8.978;2023-09-18T14:02:33;18.38;;;9.05;;
61685;SDS011;47592;45.904;8.978;2023-09-18T14:04:58;19.67;;;10.23;;
61685;SDS011;47592;45.904;8.978;2023-09-18T14:07:26;16.75;;;10.02;;
61685;SDS011;47592;45.904;8.978;2023-09-18T14:09:52;21.55;;;8.98;;
61685;SDS011;47592;45.904;8.978;2023-09-18T14:12:23;22.07;;;10.33;;
61685;SDS011;47592;45.904;8.978;2023-09-18T14:14:51;21.85;;;11.57;;
61685;SDS011;47592;45.904;8.978;2023-09-18T14:17:17;23.70;;;12.85;;
61685;SDS011;47592;45.904;8.978;2023-09-18T14:19:46;20.60;;;12.18;;
61685;SDS011;47592;45.904;8.978;2023-09-18T14:22:12;25.38;;;14.32;;
61685;SDS011;47592;45.904;8.978;2023-09-18T14:24:40;22.88;;;12.55;;
61685;SDS011;47592;45.904;8.978;2023-09-18T14:27:08;23.73;;;13.90;;
61685;SDS011;47592;45.904;8.978;2023-09-18T14:29:33;22.90;;;13.65;;
61685;SDS011;47592;45.904;8.978;2023-09-18T14:32:03;25.40;;;14.07;;
61685;SDS011;47592;45.904;8.978;2023-09-18T14:34:34;24.45;;;15.57;;
61685;SDS011;47592;45.904;8.978;2023-09-18T14:39:31;23.27;;;14.50;;
61685;SDS011;47592;45.904;8.978;2023-09-18T14:41:57;29.67;;;15.55;;
61685;SDS011;47592;45.904;8.978;2023-09-18T14:44:23;26.23;;;16.02;;
61685;SDS011;47592;45.904;8.978;2023-09-18T14:46:48;24.52;;;15.82;;
61685;SDS011;47592;45.904;8.978;2023-09-18T14:49:14;27.88;;;16.92;;
61685;SDS011;47592;45.904;8.978;2023-09-18T14:51:39;26.52;;;15.80;;
61685;SDS011;47592;45.904;8.978;2023-09-18T14:54:05;29.23;;;17.70;;
61685;SDS011;47592;45.904;8.978;2023-09-18T14:56:32;33.97;;;23.15;;
61685;SDS011;47592;45.904;8.978;2023-09-18T14:59:01;27.58;;;18.42;;
61685;SDS011;47592;45.904;8.978;2023-09-18T15:01:27;28.33;;;18.58;;
61685;SDS011;47592;45.904;8.978;2023-09-18T15:03:52;29.75;;;17.88;;
61685;SDS011;47592;45.904;8.978;2023-09-18T15:06:18;25.40;;;15.40;;
61685;SDS011;47592;45.904;8.978;2023-09-18T15:08:43;26.23;;;15.95;;
61685;SDS011;47592;45.904;8.978;2023-09-18T15:11:09;24.65;;;14.80;;